Time;durP1;ratioP1;P1;durP2;ratioP2;P2;SDS_P1;SDS_P2;PMS_P1;PMS_P2;Temp;Humidity;BMP_temperature;BMP_pressure;BME280_temperature;BME280_humidity;BME280_pressure;Samples;Min_cycle;Max_cycle;Signal;HPM_P1;HPM_P2
2021/05/16 00:00:40;;;;;;;1.60;1.20;;;;;;;;;;5030193;28;20033;-49
2021/05/16 00:03:07;;;;;;;1.38;1.20;;;;;;;;;;5028615;28;20405;-49
2021/05/16 00:05:35;;;;;;;1.95;1.17;;;;;;;;;;5018430;28;20063;-48
2021/05/16 00:08:02;;;;;;;1.17;0.98;;;;;;;;;;5019791;28;20045;-48
2021/05/16 00:10:28;;;;;;;1.20;1.10;;;;;;;;;;5021677;28;20465;-47
2021/05/16 00:12:56;;;;;;;3.33;1.45;;;;;;;;;;5012882;28;20482;-48
2021/05/16 00:15:24;;;;;;;1.10;1.00;;;;;;;;;;5026432;28;20402;-47
2021/05/16 00:17:51;;;;;;;3.85;1.13;;;;;;;;;;5025904;28;20050;-48
2021/05/16 00:20:19;;;;;;;2.20;1.38;;;;;;;;;;5019435;28;20041;-50
2021/05/16 00:22:47;;;;;;;2.78;1.00;;;;;;;;;;5024826;28;20048;-50
2021/05/16 00:25:14;;;;;;;1.90;1.00;;;;;;;;;;5029887;28;20520;-50
2021/05/16 00:27:42;;;;;;;1.10;1.00;;;;;;;;;;5027560;28;20041;-47
2021/05/16 00:30:10;;;;;;;2.45;1.00;;;;;;;;;;5023692;28;20079;-46
2021/05/16 00:32:37;;;;;;;1.10;1.00;;;;;;;;;;5029090;28;20083;-49
2021/05/16 00:35:05;;;;;;;2.70;1.00;;;;;;;;;;5028336;28;20981;-47
2021/05/16 00:37:32;;;;;;;1.05;0.95;;;;;;;;;;5028462;28;20025;-47
2021/05/16 00:39:59;;;;;;;1.38;1.27;;;;;;;;;;5027436;28;20496;-50
2021/05/16 00:42:26;;;;;;;2.97;0.93;;;;;;;;;;5028933;28;20045;-48
2021/05/16 00:44:58;;;;;;;3.75;1.30;;;;;;;;;;5030150;28;20079;-49
2021/05/16 00:47:25;;;;;;;1.88;1.08;;;;;;;;;;5025144;28;20049;-51
2021/05/16 00:49:52;;;;;;;1.55;1.33;;;;;;;;;;5024821;28;20050;-48
2021/05/16 00:52:19;;;;;;;1.95;1.10;;;;;;;;;;5028189;28;20033;-48
2021/05/16 00:54:49;;;;;;;4.53;1.33;;;;;;;;;;5026861;28;20100;-50
2021/05/16 00:57:16;;;;;;;1.02;1.00;;;;;;;;;;5029848;28;20038;-49
2021/05/16 00:59:44;;;;;;;4.13;1.27;;;;;;;;;;5026339;28;20045;-50
2021/05/16 01:02:12;;;;;;;1.77;1.55;;;;;;;;;;5027637;28;20437;-48
2021/05/16 01:04:41;;;;;;;1.63;1.38;;;;;;;;;;5025338;28;20045;-49
2021/05/16 01:07:08;;;;;;;1.63;1.05;;;;;;;;;;5029673;28;20036;-49
2021/05/16 01:09:38;;;;;;;1.17;1.08;;;;;;;;;;5015470;28;20553;-48
2021/05/16 01:12:07;;;;;;;3.72;1.10;;;;;;;;;;5032012;28;20065;-51
2021/05/16 01:14:42;;;;;;;1.55;1.45;;;;;;;;;;5031659;28;20064;-48
2021/05/16 01:17:10;;;;;;;1.63;1.10;;;;;;;;;;5030707;28;20048;-49
2021/05/16 01:19:39;;;;;;;1.10;1.10;;;;;;;;;;5028807;28;20539;-48
2021/05/16 01:22:08;;;;;;;1.17;1.10;;;;;;;;;;5023221;28;20951;-50
2021/05/16 01:24:38;;;;;;;1.50;1.15;;;;;;;;;;5032329;28;20052;-51
2021/05/16 01:27:12;;;;;;;2.47;1.20;;;;;;;;;;5031182;28;20049;-50
2021/05/16 01:29:38;;;;;;;1.65;1.10;;;;;;;;;;5031052;28;20033;-46
2021/05/16 01:32:10;;;;;;;1.27;1.10;;;;;;;;;;5026519;28;20415;-47
2021/05/16 01:34:46;;;;;;;1.65;1.35;;;;;;;;;;5029370;28;20652;-48
2021/05/16 01:37:14;;;;;;;2.08;1.15;;;;;;;;;;5020671;28;20041;-47
2021/05/16 01:39:41;;;;;;;1.60;1.30;;;;;;;;;;5026153;28;20030;-49
2021/05/16 01:42:09;;;;;;;1.23;1.23;;;;;;;;;;5015437;28;20061;-48
2021/05/16 01:44:36;;;;;;;4.00;1.10;;;;;;;;;;5032357;28;20095;-50
2021/05/16 01:47:03;;;;;;;1.27;1.10;;;;;;;;;;5028671;28;20046;-50
2021/05/16 01:49:43;;;;;;;1.80;1.70;;;;;;;;;;5031974;28;20548;-51
2021/05/16 01:52:11;;;;;;;1.25;1.15;;;;;;;;;;5032060;28;20068;-50
2021/05/16 01:54:38;;;;;;;2.25;1.08;;;;;;;;;;5031713;28;20091;-49
2021/05/16 01:57:06;;;;;;;1.00;1.00;;;;;;;;;;5020765;28;20049;-51
2021/05/16 01:59:36;;;;;;;1.73;1.00;;;;;;;;;;5025709;28;20034;-49
2021/05/16 02:02:04;;;;;;;2.47;1.00;;;;;;;;;;5013231;28;20042;-47
2021/05/16 02:04:32;;;;;;;1.63;1.52;;;;;;;;;;5031069;28;20041;-48
2021/05/16 02:07:00;;;;;;;2.20;1.10;;;;;;;;;;5031206;28;20525;-50
2021/05/16 02:09:28;;;;;;;1.80;1.20;;;;;;;;;;5031633;28;20236;-47
2021/05/16 02:11:56;;;;;;;1.45;1.10;;;;;;;;;;5029052;28;20096;-48
2021/05/16 02:14:25;;;;;;;1.58;1.20;;;;;;;;;;5015307;28;20037;-51
2021/05/16 02:16:54;;;;;;;1.15;1.00;;;;;;;;;;5023318;28;20411;-47
2021/05/16 02:19:21;;;;;;;1.23;1.00;;;;;;;;;;5026663;28;20041;-47
2021/05/16 02:21:48;;;;;;;4.72;1.48;;;;;;;;;;5032401;28;20482;-50
2021/05/16 02:24:16;;;;;;;9.25;1.98;;;;;;;;;;5026850;28;20501;-50
2021/05/16 02:26:44;;;;;;;1.58;1.45;;;;;;;;;;5017031;28;20068;-48
2021/05/16 02:29:11;;;;;;;1.58;1.10;;;;;;;;;;5031211;28;20045;-49
2021/05/16 02:31:39;;;;;;;1.40;1.10;;;;;;;;;;5029829;28;20041;-47
2021/05/16 02:34:06;;;;;;;1.30;1.30;;;;;;;;;;5032221;28;20048;-47
2021/05/16 02:36:34;;;;;;;1.45;1.40;;;;;;;;;;5030234;28;20509;-52
2021/05/16 02:39:02;;;;;;;4.70;1.20;;;;;;;;;;5030693;28;20115;-51
2021/05/16 02:41:30;;;;;;;2.33;1.10;;;;;;;;;;5030914;28;20045;-52
2021/05/16 02:43:58;;;;;;;3.40;1.02;;;;;;;;;;5028815;28;20065;-48
2021/05/16 02:46:24;;;;;;;1.65;1.10;;;;;;;;;;5029463;28;20049;-51
2021/05/16 02:48:51;;;;;;;2.35;1.10;;;;;;;;;;5024680;28;20050;-51
2021/05/16 02:51:20;;;;;;;4.88;1.10;;;;;;;;;;5019514;28;20052;-48
2021/05/16 02:53:48;;;;;;;1.90;1.00;;;;;;;;;;5029702;28;20124;-48
2021/05/16 02:56:16;;;;;;;1.67;1.10;;;;;;;;;;5028515;28;20095;-52
2021/05/16 02:58:44;;;;;;;1.00;1.00;;;;;;;;;;5030996;28;20043;-51
2021/05/16 03:01:12;;;;;;;1.90;1.30;;;;;;;;;;5023121;28;20539;-52
2021/05/16 03:03:40;;;;;;;2.28;1.13;;;;;;;;;;5029556;28;20440;-48
2021/05/16 03:06:08;;;;;;;1.85;1.05;;;;;;;;;;5014290;28;20048;-51
2021/05/16 03:08:36;;;;;;;3.47;1.40;;;;;;;;;;5027460;28;20520;-48
2021/05/16 03:11:05;;;;;;;2.05;1.08;;;;;;;;;;5029380;28;20117;-48
2021/05/16 03:13:32;;;;;;;2.25;1.20;;;;;;;;;;5029553;28;20048;-48
2021/05/16 03:16:00;;;;;;;2.55;1.10;;;;;;;;;;5028357;28;20120;-51
2021/05/16 03:18:27;;;;;;;1.70;1.02;;;;;;;;;;5026751;28;20069;-51
2021/05/16 03:20:57;;;;;;;3.03;1.33;;;;;;;;;;5022772;28;20064;-47
2021/05/16 03:23:26;;;;;;;3.95;1.17;;;;;;;;;;5028703;28;20168;-48
2021/05/16 03:25:58;;;;;;;4.97;1.30;;;;;;;;;;5029759;28;20452;-50
2021/05/16 03:28:26;;;;;;;6.13;1.27;;;;;;;;;;5028346;28;20067;-46
2021/05/16 03:30:54;;;;;;;1.35;1.25;;;;;;;;;;5013079;28;20073;-49
2021/05/16 03:33:21;;;;;;;2.50;1.90;;;;;;;;;;5030301;28;20048;-51
2021/05/16 03:35:49;;;;;;;1.35;1.10;;;;;;;;;;5021621;28;20061;-52
2021/05/16 03:38:16;;;;;;;6.03;1.40;;;;;;;;;;5030858;28;20046;-48
2021/05/16 03:40:43;;;;;;;1.20;1.15;;;;;;;;;;5028683;28;20454;-49
2021/05/16 03:43:10;;;;;;;1.52;1.42;;;;;;;;;;5030375;28;20087;-51
2021/05/16 03:45:36;;;;;;;4.55;1.42;;;;;;;;;;5023428;28;20049;-50
2021/05/16 03:48:03;;;;;;;4.20;1.20;;;;;;;;;;5027694;28;20041;-49
2021/05/16 03:50:31;;;;;;;1.85;1.10;;;;;;;;;;5021030;28;20494;-51
2021/05/16 03:52:57;;;;;;;2.58;1.85;;;;;;;;;;5025903;28;20115;-48
2021/05/16 03:55:25;;;;;;;3.17;2.08;;;;;;;;;;5014838;28;20049;-51
2021/05/16 03:57:53;;;;;;;4.47;1.10;;;;;;;;;;5019046;28;20077;-48
2021/05/16 04:00:22;;;;;;;3.03;1.13;;;;;;;;;;5020132;28;20038;-49
2021/05/16 04:02:49;;;;;;;3.20;1.58;;;;;;;;;;5015850;28;20033;-49
2021/05/16 04:05:17;;;;;;;3.53;1.17;;;;;;;;;;5025471;28;20041;-50
2021/05/16 04:07:45;;;;;;;4.88;1.30;;;;;;;;;;5020411;28;20041;-49
2021/05/16 04:10:15;;;;;;;4.28;1.52;;;;;;;;;;5017757;28;20092;-51
2021/05/16 04:12:44;;;;;;;5.95;1.40;;;;;;;;;;5027501;28;20559;-50
2021/05/16 04:15:11;;;;;;;2.08;1.50;;;;;;;;;;5011821;28;20038;-50
2021/05/16 04:17:39;;;;;;;4.85;1.50;;;;;;;;;;5027201;28;20041;-49
2021/05/16 04:20:07;;;;;;;7.68;1.67;;;;;;;;;;5025151;28;20048;-51
2021/05/16 04:22:36;;;;;;;2.47;1.30;;;;;;;;;;5028489;28;20073;-48
2021/05/16 04:25:04;;;;;;;11.05;1.95;;;;;;;;;;5026687;28;20120;-48
2021/05/16 04:27:31;;;;;;;4.95;1.73;;;;;;;;;;5012818;28;20562;-49
2021/05/16 04:29:58;;;;;;;5.00;1.50;;;;;;;;;;5029292;28;20038;-47
2021/05/16 04:32:24;;;;;;;3.40;1.60;;;;;;;;;;5027105;28;20065;-50
2021/05/16 04:34:51;;;;;;;5.10;1.42;;;;;;;;;;5025653;28;20432;-51
2021/05/16 04:37:18;;;;;;;3.28;1.50;;;;;;;;;;5026244;28;20061;-48
2021/05/16 04:39:45;;;;;;;6.38;1.15;;;;;;;;;;5027384;28;20065;-48
2021/05/16 04:42:12;;;;;;;8.57;1.55;;;;;;;;;;5019205;28;20494;-50
2021/05/16 04:44:38;;;;;;;8.00;1.88;;;;;;;;;;5035710;28;20042;-51
2021/05/16 04:47:06;;;;;;;6.40;1.55;;;;;;;;;;5013792;28;20065;-49
2021/05/16 04:49:33;;;;;;;2.97;1.20;;;;;;;;;;5024706;28;20050;-48
2021/05/16 04:51:59;;;;;;;2.80;1.10;;;;;;;;;;5029050;28;20033;-48
2021/05/16 04:54:27;;;;;;;2.78;1.17;;;;;;;;;;5018526;28;20046;-50
2021/05/16 04:56:54;;;;;;;4.70;1.42;;;;;;;;;;5021543;28;20037;-50
2021/05/16 04:59:22;;;;;;;5.85;1.42;;;;;;;;;;5029112;28;20107;-50
2021/05/16 05:01:49;;;;;;;5.68;1.20;;;;;;;;;;5025855;28;20376;-49
2021/05/16 05:04:16;;;;;;;6.30;1.75;;;;;;;;;;5028209;28;20798;-50
2021/05/16 05:06:43;;;;;;;1.63;1.10;;;;;;;;;;5026762;28;20049;-50
2021/05/16 05:09:11;;;;;;;6.82;1.40;;;;;;;;;;5022732;28;21110;-48
2021/05/16 05:11:37;;;;;;;7.50;1.70;;;;;;;;;;5024814;28;20490;-50
2021/05/16 05:14:04;;;;;;;6.22;1.90;;;;;;;;;;5028862;28;20124;-50
2021/05/16 05:16:31;;;;;;;6.82;1.65;;;;;;;;;;5027990;28;20030;-50
2021/05/16 05:18:58;;;;;;;6.35;1.20;;;;;;;;;;5019792;28;20072;-48
2021/05/16 05:21:25;;;;;;;3.53;1.25;;;;;;;;;;5024468;28;20099;-49
2021/05/16 05:23:53;;;;;;;6.07;1.30;;;;;;;;;;5017337;28;20107;-49
2021/05/16 05:26:20;;;;;;;3.20;1.20;;;;;;;;;;5021165;28;20117;-50
2021/05/16 05:28:48;;;;;;;4.60;2.00;;;;;;;;;;5017757;28;20087;-50
2021/05/16 05:31:15;;;;;;;3.58;1.30;;;;;;;;;;5014921;28;20474;-48
2021/05/16 05:33:42;;;;;;;2.10;1.50;;;;;;;;;;5025055;28;20048;-51
2021/05/16 05:36:09;;;;;;;4.35;1.30;;;;;;;;;;5028103;28;20129;-49
2021/05/16 05:38:36;;;;;;;5.68;1.40;;;;;;;;;;5027656;28;20041;-48
2021/05/16 05:41:03;;;;;;;7.22;1.75;;;;;;;;;;5025774;28;20104;-51
2021/05/16 05:43:30;;;;;;;5.00;1.20;;;;;;;;;;5028922;28;20049;-48
2021/05/16 05:45:57;;;;;;;2.78;1.58;;;;;;;;;;5025434;28;20069;-50
2021/05/16 05:48:24;;;;;;;4.57;1.20;;;;;;;;;;5027221;28;20528;-48
2021/05/16 05:50:51;;;;;;;5.78;1.40;;;;;;;;;;5027326;28;20411;-49
2021/05/16 05:53:18;;;;;;;5.78;1.20;;;;;;;;;;5030074;28;20091;-52
2021/05/16 05:55:45;;;;;;;3.70;1.48;;;;;;;;;;5020368;28;20045;-50
2021/05/16 05:58:12;;;;;;;3.38;1.33;;;;;;;;;;5023386;28;20053;-51
2021/05/16 06:00:40;;;;;;;7.03;1.35;;;;;;;;;;5027238;28;20041;-51
2021/05/16 06:03:08;;;;;;;7.03;2.10;;;;;;;;;;5032138;28;20092;-50
2021/05/16 06:05:37;;;;;;;5.63;2.60;;;;;;;;;;5027395;28;20040;-48
2021/05/16 06:08:04;;;;;;;6.28;1.63;;;;;;;;;;5032421;28;20045;-50
2021/05/16 06:10:31;;;;;;;2.10;1.70;;;;;;;;;;5027803;28;20041;-49
2021/05/16 06:12:58;;;;;;;6.53;1.50;;;;;;;;;;5031284;28;20037;-49
2021/05/16 06:15:25;;;;;;;5.80;1.60;;;;;;;;;;5030340;28;20068;-49
2021/05/16 06:17:52;;;;;;;5.85;1.85;;;;;;;;;;5027949;28;20553;-51
2021/05/16 06:20:19;;;;;;;4.70;1.35;;;;;;;;;;5027860;28;20474;-48
2021/05/16 06:22:46;;;;;;;3.35;2.20;;;;;;;;;;5024115;28;20037;-49
2021/05/16 06:25:13;;;;;;;2.38;1.45;;;;;;;;;;5029164;28;20037;-50
2021/05/16 06:27:40;;;;;;;4.60;1.20;;;;;;;;;;5019149;28;20037;-51
2021/05/16 06:30:07;;;;;;;2.80;1.10;;;;;;;;;;5028796;28;20041;-49
2021/05/16 06:32:35;;;;;;;7.25;1.30;;;;;;;;;;5028957;28;20034;-50
2021/05/16 06:35:02;;;;;;;5.15;1.42;;;;;;;;;;5031456;28;20033;-49
2021/05/16 06:37:29;;;;;;;1.48;1.38;;;;;;;;;;5029709;28;20034;-48
2021/05/16 06:39:56;;;;;;;6.93;2.33;;;;;;;;;;5028491;28;20382;-50
2021/05/16 06:42:26;;;;;;;6.93;1.33;;;;;;;;;;5026656;28;20049;-50
2021/05/16 06:44:53;;;;;;;9.52;1.58;;;;;;;;;;5014773;28;20104;-49
2021/05/16 06:47:21;;;;;;;3.00;1.80;;;;;;;;;;5030258;28;20077;-51
2021/05/16 06:49:51;;;;;;;10.20;2.00;;;;;;;;;;5029298;28;20058;-49
2021/05/16 06:52:19;;;;;;;7.68;1.60;;;;;;;;;;5022472;28;20030;-51
2021/05/16 06:54:47;;;;;;;6.50;1.38;;;;;;;;;;5031025;28;20687;-51
2021/05/16 06:57:14;;;;;;;3.72;1.50;;;;;;;;;;5029215;28;20029;-51
2021/05/16 06:59:40;;;;;;;4.25;1.70;;;;;;;;;;5017390;28;20057;-50
2021/05/16 07:02:07;;;;;;;4.82;1.20;;;;;;;;;;5025715;28;20531;-50
2021/05/16 07:04:34;;;;;;;3.67;1.60;;;;;;;;;;5032125;28;20033;-49
2021/05/16 07:07:01;;;;;;;8.52;1.48;;;;;;;;;;5031381;28;20041;-50
2021/05/16 07:09:28;;;;;;;3.10;1.30;;;;;;;;;;5027009;28;20124;-51
2021/05/16 07:11:55;;;;;;;6.93;1.45;;;;;;;;;;5030316;28;20038;-48
2021/05/16 07:14:23;;;;;;;5.43;1.40;;;;;;;;;;5024704;28;20084;-51
2021/05/16 07:16:49;;;;;;;9.02;1.83;;;;;;;;;;5032643;28;20053;-51
2021/05/16 07:19:16;;;;;;;2.35;1.58;;;;;;;;;;5030892;28;20084;-52
2021/05/16 07:21:43;;;;;;;3.60;1.13;;;;;;;;;;5028212;28;20065;-53
2021/05/16 07:24:10;;;;;;;3.15;1.33;;;;;;;;;;5013232;28;20038;-53
2021/05/16 07:26:37;;;;;;;2.90;1.52;;;;;;;;;;5028882;28;20724;-52
2021/05/16 07:29:05;;;;;;;2.85;1.27;;;;;;;;;;5017572;28;20053;-54
2021/05/16 07:31:32;;;;;;;5.55;1.63;;;;;;;;;;5030108;28;20651;-53
2021/05/16 07:33:58;;;;;;;8.00;1.55;;;;;;;;;;5029403;28;20485;-52
2021/05/16 07:36:25;;;;;;;4.55;1.10;;;;;;;;;;5028491;28;20086;-53
2021/05/16 07:38:52;;;;;;;4.93;1.75;;;;;;;;;;5030483;28;20382;-52
2021/05/16 07:41:19;;;;;;;4.88;1.30;;;;;;;;;;5028346;28;20040;-52
2021/05/16 07:43:47;;;;;;;7.57;1.67;;;;;;;;;;5028352;28;20045;-54
2021/05/16 07:46:14;;;;;;;6.20;1.40;;;;;;;;;;5029281;28;20057;-52
2021/05/16 07:48:42;;;;;;;5.20;1.58;;;;;;;;;;5011406;28;20049;-53
2021/05/16 07:51:09;;;;;;;4.63;1.50;;;;;;;;;;5021796;28;20502;-53
2021/05/16 07:53:39;;;;;;;7.15;1.88;;;;;;;;;;5018705;28;20037;-52
2021/05/16 07:56:07;;;;;;;3.83;1.50;;;;;;;;;;5015000;28;20049;-53
2021/05/16 07:58:35;;;;;;;4.50;2.97;;;;;;;;;;5025422;28;20597;-53
2021/05/16 08:01:02;;;;;;;7.80;3.03;;;;;;;;;;5016367;28;20064;-53
2021/05/16 08:03:29;;;;;;;4.93;2.22;;;;;;;;;;5028764;28;20563;-56
2021/05/16 08:05:58;;;;;;;5.13;1.70;;;;;;;;;;5028433;28;20033;-55
2021/05/16 08:08:27;;;;;;;7.82;2.40;;;;;;;;;;5014671;28;20042;-56
2021/05/16 08:10:55;;;;;;;5.57;1.75;;;;;;;;;;5028531;28;20029;-56
2021/05/16 08:13:23;;;;;;;5.07;1.83;;;;;;;;;;5020298;28;20041;-55
2021/05/16 08:15:51;;;;;;;6.57;1.55;;;;;;;;;;5029680;28;20551;-56
2021/05/16 08:18:20;;;;;;;3.00;1.67;;;;;;;;;;5026668;28;20553;-55
2021/05/16 08:20:48;;;;;;;6.85;1.90;;;;;;;;;;5024917;28;20037;-54
2021/05/16 08:23:16;;;;;;;6.38;1.50;;;;;;;;;;5029699;28;20083;-55
2021/05/16 08:25:45;;;;;;;7.40;2.13;;;;;;;;;;5026935;28;20100;-55
2021/05/16 08:28:12;;;;;;;4.40;1.95;;;;;;;;;;5030120;28;20038;-55
2021/05/16 08:30:41;;;;;;;6.13;1.65;;;;;;;;;;5025947;28;20040;-55
2021/05/16 08:33:09;;;;;;;5.05;2.75;;;;;;;;;;5028594;28;20033;-55
2021/05/16 08:35:35;;;;;;;3.70;1.75;;;;;;;;;;5029661;28;20501;-55
2021/05/16 08:38:03;;;;;;;5.57;1.30;;;;;;;;;;5027604;28;20049;-55
2021/05/16 08:40:30;;;;;;;5.30;1.60;;;;;;;;;;5022406;28;20108;-56
2021/05/16 08:43:00;;;;;;;2.40;1.60;;;;;;;;;;5025414;28;20473;-55
2021/05/16 08:45:27;;;;;;;6.50;1.80;;;;;;;;;;5028350;28;20038;-54
2021/05/16 08:47:56;;;;;;;5.90;1.60;;;;;;;;;;5028754;28;20045;-56
2021/05/16 08:50:23;;;;;;;5.75;2.08;;;;;;;;;;5027152;28;20061;-56
2021/05/16 08:52:50;;;;;;;4.93;1.80;;;;;;;;;;5012842;28;20046;-55
2021/05/16 08:55:17;;;;;;;8.07;2.30;;;;;;;;;;5025816;28;20104;-54
2021/05/16 08:57:44;;;;;;;6.30;2.45;;;;;;;;;;5022213;28;20041;-54
2021/05/16 09:00:13;;;;;;;2.97;1.73;;;;;;;;;;5029930;28;20029;-56
2021/05/16 09:02:59;;;;;;;6.35;2.53;;;;;;;;;;5026791;28;20041;-55
2021/05/16 09:05:27;;;;;;;6.75;1.80;;;;;;;;;;5028380;28;20045;-54
2021/05/16 09:08:01;;;;;;;3.28;1.45;;;;;;;;;;5024378;28;20566;-55
2021/05/16 09:10:28;;;;;;;6.30;1.73;;;;;;;;;;5023397;28;20044;-53
2021/05/16 09:13:06;;;;;;;2.80;1.60;;;;;;;;;;5011277;28;20455;-56
2021/05/16 09:15:33;;;;;;;5.03;1.88;;;;;;;;;;5025762;28;20093;-55
2021/05/16 09:18:00;;;;;;;9.75;2.65;;;;;;;;;;5019737;28;20057;-55
2021/05/16 09:20:27;;;;;;;4.10;1.40;;;;;;;;;;5025615;28;20068;-55
2021/05/16 09:22:55;;;;;;;6.15;1.85;;;;;;;;;;5025949;28;20441;-56
2021/05/16 09:25:24;;;;;;;3.38;1.75;;;;;;;;;;5013648;28;20522;-55
2021/05/16 09:27:56;;;;;;;7.03;1.50;;;;;;;;;;5019901;28;20050;-55
2021/05/16 09:30:24;;;;;;;3.58;1.52;;;;;;;;;;5029384;28;20044;-54
2021/05/16 09:33:08;;;;;;;5.75;1.40;;;;;;;;;;5033033;28;20531;-55
2021/05/16 09:35:47;;;;;;;6.45;1.30;;;;;;;;;;5031993;28;20045;-55
2021/05/16 09:38:17;;;;;;;3.60;1.40;;;;;;;;;;5030786;28;20545;-55
2021/05/16 09:40:44;;;;;;;5.90;1.60;;;;;;;;;;5026695;28;20534;-55
2021/05/16 09:43:16;;;;;;;4.47;1.60;;;;;;;;;;5030597;28;20037;-55
2021/05/16 09:45:43;;;;;;;4.93;1.63;;;;;;;;;;5032677;28;20064;-54
2021/05/16 09:48:28;;;;;;;3.65;1.90;;;;;;;;;;5025335;28;20041;-55
2021/05/16 09:51:07;;;;;;;2.58;1.27;;;;;;;;;;5024110;28;20054;-55
2021/05/16 09:53:51;;;;;;;5.13;1.80;;;;;;;;;;5031209;28;20033;-51
2021/05/16 09:56:22;;;;;;;2.67;1.58;;;;;;;;;;5032367;28;20065;-56
2021/05/16 09:58:50;;;;;;;2.45;1.67;;;;;;;;;;5028006;28;20040;-55
2021/05/16 10:01:20;;;;;;;2.80;1.83;;;;;;;;;;5025856;28;20029;-56
2021/05/16 10:03:49;;;;;;;3.85;1.95;;;;;;;;;;5030554;28;20044;-55
2021/05/16 10:06:21;;;;;;;2.92;1.67;;;;;;;;;;5026779;28;20050;-54
2021/05/16 10:08:49;;;;;;;5.43;1.50;;;;;;;;;;5032231;28;20107;-54
2021/05/16 10:11:18;;;;;;;3.85;1.70;;;;;;;;;;5029296;28;20029;-56
2021/05/16 10:13:51;;;;;;;2.50;1.38;;;;;;;;;;5028372;28;20042;-55
2021/05/16 10:16:19;;;;;;;2.78;1.75;;;;;;;;;;5027964;28;20045;-55
2021/05/16 10:18:47;;;;;;;3.35;1.63;;;;;;;;;;5021185;28;20037;-54
2021/05/16 10:21:14;;;;;;;1.60;1.48;;;;;;;;;;5029914;28;20045;-55
2021/05/16 10:23:42;;;;;;;3.05;2.63;;;;;;;;;;5025995;28;21490;-56
2021/05/16 10:26:19;;;;;;;4.30;1.30;;;;;;;;;;5024825;28;20037;-56
2021/05/16 10:28:56;;;;;;;3.63;2.00;;;;;;;;;;5027790;28;20053;-55
2021/05/16 10:31:42;;;;;;;6.50;2.22;;;;;;;;;;5020715;28;20047;-56
2021/05/16 10:34:21;;;;;;;2.35;1.40;;;;;;;;;;5030424;28;20120;-56
2021/05/16 10:36:49;;;;;;;4.40;1.55;;;;;;;;;;5028331;28;20030;-56
2021/05/16 10:39:35;;;;;;;4.40;1.38;;;;;;;;;;5029616;28;20047;-54
2021/05/16 10:42:18;;;;;;;9.05;2.97;;;;;;;;;;5016657;28;20042;-56
2021/05/16 10:44:57;;;;;;;2.83;1.40;;;;;;;;;;5025611;28;20419;-56
2021/05/16 10:47:52;;;;;;;2.95;1.73;;;;;;;;;;5024908;28;20497;-56
2021/05/16 10:50:19;;;;;;;6.22;1.50;;;;;;;;;;5031225;28;20057;-55
2021/05/16 10:52:59;;;;;;;3.90;1.60;;;;;;;;;;5027882;28;20041;-55
2021/05/16 10:55:44;;;;;;;4.97;1.77;;;;;;;;;;5029359;28;20041;-54
2021/05/16 10:58:31;;;;;;;3.45;1.65;;;;;;;;;;5029810;28;20033;-55
2021/05/16 11:01:07;;;;;;;5.90;1.35;;;;;;;;;;5024722;28;20034;-56
2021/05/16 11:03:56;;;;;;;1.83;1.02;;;;;;;;;;5018334;28;20080;-54
2021/05/16 11:06:39;;;;;;;2.08;1.10;;;;;;;;;;5030882;28;20045;-53
2021/05/16 11:09:07;;;;;;;7.07;1.55;;;;;;;;;;5027755;28;20045;-55
2021/05/16 11:11:50;;;;;;;2.60;1.45;;;;;;;;;;5028028;28;20042;-55
2021/05/16 11:14:18;;;;;;;1.98;1.50;;;;;;;;;;5028603;28;20545;-55
2021/05/16 11:16:48;;;;;;;2.92;1.48;;;;;;;;;;5029116;28;20045;-56
2021/05/16 11:19:16;;;;;;;2.42;1.48;;;;;;;;;;5029117;28;20034;-56
2021/05/16 11:21:44;;;;;;;3.35;1.95;;;;;;;;;;5028711;28;20655;-55
2021/05/16 11:24:11;;;;;;;2.80;1.40;;;;;;;;;;5029062;28;20048;-56
2021/05/16 11:26:38;;;;;;;3.33;2.35;;;;;;;;;;5031206;28;20535;-56
2021/05/16 11:29:06;;;;;;;2.35;1.20;;;;;;;;;;5029069;28;20132;-56
2021/05/16 11:31:36;;;;;;;1.52;1.23;;;;;;;;;;5018772;28;20076;-55
2021/05/16 11:34:05;;;;;;;2.08;1.10;;;;;;;;;;5019541;28;20037;-56
2021/05/16 11:36:34;;;;;;;3.90;1.52;;;;;;;;;;5022187;28;20057;-56
2021/05/16 11:39:05;;;;;;;2.30;1.00;;;;;;;;;;5030390;28;20030;-55
2021/05/16 11:41:32;;;;;;;1.92;1.45;;;;;;;;;;5024028;28;20037;-56
2021/05/16 11:44:00;;;;;;;3.78;1.50;;;;;;;;;;5017369;28;20065;-55
2021/05/16 11:46:39;;;;;;;2.40;1.33;;;;;;;;;;5030752;28;20033;-55
2021/05/16 11:49:06;;;;;;;1.75;1.10;;;;;;;;;;5028566;28;20053;-56
2021/05/16 11:51:34;;;;;;;3.33;1.30;;;;;;;;;;5030242;28;20397;-56
2021/05/16 11:54:03;;;;;;;1.70;1.30;;;;;;;;;;5026996;28;20045;-56
2021/05/16 11:56:35;;;;;;;5.88;1.20;;;;;;;;;;5027785;28;20048;-56
2021/05/16 11:59:04;;;;;;;1.42;1.17;;;;;;;;;;5030360;28;20124;-55
2021/05/16 12:01:36;;;;;;;2.65;1.65;;;;;;;;;;5026621;28;20033;-55
2021/05/16 12:04:14;;;;;;;2.17;1.33;;;;;;;;;;5027109;28;20048;-56
2021/05/16 12:06:43;;;;;;;1.80;1.48;;;;;;;;;;5029241;28;20049;-55
2021/05/16 12:09:14;;;;;;;1.35;1.20;;;;;;;;;;5027466;28;20485;-54
2021/05/16 12:11:42;;;;;;;2.83;1.13;;;;;;;;;;5026724;28;20049;-54
2021/05/16 12:14:18;;;;;;;2.95;1.20;;;;;;;;;;5019830;28;20034;-54
2021/05/16 12:16:54;;;;;;;1.45;1.00;;;;;;;;;;5021520;28;20513;-56
2021/05/16 12:19:25;;;;;;;1.10;1.10;;;;;;;;;;5026749;28;20091;-54
2021/05/16 12:21:53;;;;;;;4.15;1.17;;;;;;;;;;5028281;28;20034;-56
2021/05/16 12:24:25;;;;;;;1.73;1.05;;;;;;;;;;5027431;28;20086;-56
2021/05/16 12:26:52;;;;;;;3.22;1.30;;;;;;;;;;5029354;28;20041;-56
2021/05/16 12:29:19;;;;;;;1.13;1.00;;;;;;;;;;5023677;28;20474;-55
2021/05/16 12:31:46;;;;;;;2.42;1.10;;;;;;;;;;5029617;28;20041;-55
2021/05/16 12:34:15;;;;;;;1.00;1.00;;;;;;;;;;5021304;28;20073;-55
2021/05/16 12:36:46;;;;;;;2.00;1.45;;;;;;;;;;5025569;28;20112;-56
2021/05/16 12:39:14;;;;;;;3.72;1.50;;;;;;;;;;5012745;28;20532;-54
2021/05/16 12:41:43;;;;;;;2.83;1.20;;;;;;;;;;5026285;28;20489;-56
2021/05/16 12:44:14;;;;;;;;;;;;;;;;;;5024846;28;20068;-55
2021/05/16 12:46:43;;;;;;;2.83;1.23;;;;;;;;;;5016980;28;19971;-56
2021/05/16 12:49:13;;;;;;;5.20;1.45;;;;;;;;;;5020850;28;20432;-55
2021/05/16 12:51:41;;;;;;;6.88;3.08;;;;;;;;;;5024046;28;20040;-55
2021/05/16 12:54:19;;;;;;;3.05;1.40;;;;;;;;;;5022108;28;20498;-55
2021/05/16 12:56:56;;;;;;;3.25;1.42;;;;;;;;;;5017379;28;20048;-54
2021/05/16 12:59:27;;;;;;;4.68;1.40;;;;;;;;;;5030021;28;20041;-53
2021/05/16 13:02:26;;;;;;;4.22;1.50;;;;;;;;;;5025714;28;20052;-55
2021/05/16 13:04:57;;;;;;;1.75;1.65;;;;;;;;;;5047829;28;21627;-55
2021/05/16 13:07:34;;;;;;;2.63;1.40;;;;;;;;;;5050577;28;20055;-53
2021/05/16 13:10:20;;;;;;;1.98;1.55;;;;;;;;;;5050084;28;20033;-55
2021/05/16 13:12:47;;;;;;;3.00;1.10;;;;;;;;;;5049123;28;20068;-55
2021/05/16 13:15:14;;;;;;;2.20;1.40;;;;;;;;;;5050549;28;20053;-55
2021/05/16 13:17:41;;;;;;;2.45;1.20;;;;;;;;;;5049817;28;20194;-55
2021/05/16 13:20:20;;;;;;;1.52;1.27;;;;;;;;;;5049717;28;20037;-55
2021/05/16 13:22:47;;;;;;;1.15;1.10;;;;;;;;;;5047760;28;20048;-52
2021/05/16 13:25:16;;;;;;;3.95;1.10;;;;;;;;;;5052128;28;20044;-56
2021/05/16 13:27:52;;;;;;;3.70;1.13;;;;;;;;;;5051180;28;20147;-55
2021/05/16 13:30:20;;;;;;;3.33;1.13;;;;;;;;;;5050098;28;20079;-54
2021/05/16 13:32:48;;;;;;;4.30;1.10;;;;;;;;;;5049464;28;20128;-56
2021/05/16 13:35:15;;;;;;;1.20;1.10;;;;;;;;;;5049596;28;20084;-56
2021/05/16 13:37:43;;;;;;;1.40;1.30;;;;;;;;;;5049099;28;20037;-57
2021/05/16 13:40:11;;;;;;;1.42;1.30;;;;;;;;;;5016445;28;20095;-56
2021/05/16 13:42:38;;;;;;;1.35;1.20;;;;;;;;;;5025103;28;20046;-56
2021/05/16 13:45:05;;;;;;;1.65;1.42;;;;;;;;;;5024087;28;20037;-56
2021/05/16 13:47:33;;;;;;;1.60;1.17;;;;;;;;;;5026619;28;20558;-56
2021/05/16 13:50:00;;;;;;;1.50;1.20;;;;;;;;;;5028113;28;20065;-55
2021/05/16 13:52:30;;;;;;;2.35;1.13;;;;;;;;;;5035296;28;20132;-56
2021/05/16 13:54:59;;;;;;;1.95;1.20;;;;;;;;;;5029446;28;20037;-55
2021/05/16 13:57:26;;;;;;;1.17;1.00;;;;;;;;;;5025103;28;20430;-56
2021/05/16 13:59:53;;;;;;;1.40;1.30;;;;;;;;;;5031208;28;20088;-54
2021/05/16 14:02:21;;;;;;;1.70;1.23;;;;;;;;;;5026120;28;20048;-56
2021/05/16 14:04:47;;;;;;;3.40;2.03;;;;;;;;;;5026068;28;20045;-56
2021/05/16 14:07:14;;;;;;;1.38;1.25;;;;;;;;;;5024912;28;20038;-56
2021/05/16 14:09:43;;;;;;;3.13;2.58;;;;;;;;;;5026217;28;20049;-54
2021/05/16 14:12:11;;;;;;;2.80;1.25;;;;;;;;;;5022522;28;20094;-56
2021/05/16 14:14:38;;;;;;;1.17;1.08;;;;;;;;;;5020718;28;20044;-56
2021/05/16 14:17:06;;;;;;;1.42;1.00;;;;;;;;;;5025790;28;20026;-56
2021/05/16 14:19:34;;;;;;;2.10;1.10;;;;;;;;;;5025107;28;20045;-56
2021/05/16 14:22:02;;;;;;;1.10;1.10;;;;;;;;;;5028506;28;20041;-54
2021/05/16 14:24:30;;;;;;;1.10;1.10;;;;;;;;;;5027850;28;20037;-56
2021/05/16 14:27:00;;;;;;;0.95;0.95;;;;;;;;;;5027131;28;20068;-55
2021/05/16 14:29:31;;;;;;;2.60;1.00;;;;;;;;;;5032626;28;20095;-56
2021/05/16 14:31:58;;;;;;;1.88;1.25;;;;;;;;;;5025610;28;20042;-56
2021/05/16 14:34:26;;;;;;;2.45;1.08;;;;;;;;;;5022147;28;20064;-56
2021/05/16 14:36:59;;;;;;;1.67;1.48;;;;;;;;;;5027751;28;20037;-57
2021/05/16 14:39:28;;;;;;;1.23;1.23;;;;;;;;;;5022257;28;20505;-54
2021/05/16 14:41:55;;;;;;;1.00;1.00;;;;;;;;;;5028162;28;20417;-57
2021/05/16 14:44:23;;;;;;;1.35;1.10;;;;;;;;;;5022977;28;20813;-55
2021/05/16 14:46:52;;;;;;;1.88;1.58;;;;;;;;;;5027391;28;20042;-55
2021/05/16 14:49:18;;;;;;;1.70;1.60;;;;;;;;;;5028374;28;20068;-56
2021/05/16 14:51:47;;;;;;;1.30;1.20;;;;;;;;;;5028118;28;20364;-56
2021/05/16 14:54:16;;;;;;;1.20;1.20;;;;;;;;;;5024517;28;20034;-54